sensor_id;sensor_type;location;lat;lon;timestamp;temperature;humidity
46730;DHT22;32476;50.002;11.854;2022-09-16T00:00:47;10.00;99.90
46730;DHT22;32476;50.002;11.854;2022-09-16T00:03:19;10.10;99.90
46730;DHT22;32476;50.002;11.854;2022-09-16T00:05:48;10.00;99.90
46730;DHT22;32476;50.002;11.854;2022-09-16T00:08:20;10.00;99.90
46730;DHT22;32476;50.002;11.854;2022-09-16T00:10:47;10.00;99.90
46730;DHT22;32476;50.002;11.854;2022-09-16T00:13:13;10.00;99.90
46730;DHT22;32476;50.002;11.854;2022-09-16T00:15:47;10.00;99.90
46730;DHT22;32476;50.002;11.854;2022-09-16T00:18:15;10.00;99.90
46730;DHT22;32476;50.002;11.854;2022-09-16T00:20:45;10.00;99.90
46730;DHT22;32476;50.002;11.854;2022-09-16T00:23:12;10.00;99.90
46730;DHT22;32476;50.002;11.854;2022-09-16T00:25:38;9.90;99.90
46730;DHT22;32476;50.002;11.854;2022-09-16T00:28:06;9.90;99.90
46730;DHT22;32476;50.002;11.854;2022-09-16T00:30:32;9.90;99.90
46730;DHT22;32476;50.002;11.854;2022-09-16T00:32:58;9.90;99.90
46730;DHT22;32476;50.002;11.854;2022-09-16T00:35:26;9.80;99.90
46730;DHT22;32476;50.002;11.854;2022-09-16T00:37:52;9.80;99.90
46730;DHT22;32476;50.002;11.854;2022-09-16T00:40:18;9.80;99.90
46730;DHT22;32476;50.002;11.854;2022-09-16T00:42:45;9.90;99.90
46730;DHT22;32476;50.002;11.854;2022-09-16T00:45:18;9.80;99.90
46730;DHT22;32476;50.002;11.854;2022-09-16T00:47:52;9.80;99.90
46730;DHT22;32476;50.002;11.854;2022-09-16T00:50:40;9.80;99.90
46730;DHT22;32476;50.002;11.854;2022-09-16T00:53:15;9.80;99.90
46730;DHT22;32476;50.002;11.854;2022-09-16T00:55:45;9.90;99.90
46730;DHT22;32476;50.002;11.854;2022-09-16T01:01:07;9.80;99.90
46730;DHT22;32476;50.002;11.854;2022-09-16T01:03:50;9.80;99.90
46730;DHT22;32476;50.002;11.854;2022-09-16T01:06:18;9.90;99.90
46730;DHT22;32476;50.002;11.854;2022-09-16T01:08:49;9.90;99.90
46730;DHT22;32476;50.002;11.854;2022-09-16T01:11:15;9.90;99.90
46730;DHT22;32476;50.002;11.854;2022-09-16T01:13:42;9.90;99.90
46730;DHT22;32476;50.002;11.854;2022-09-16T01:16:30;9.90;99.90
46730;DHT22;32476;50.002;11.854;2022-09-16T01:19:17;9.90;99.90
46730;DHT22;32476;50.002;11.854;2022-09-16T01:21:57;10.00;99.90
46730;DHT22;32476;50.002;11.854;2022-09-16T01:24:53;9.90;99.90
46730;DHT22;32476;50.002;11.854;2022-09-16T01:28:03;10.00;99.90
46730;DHT22;32476;50.002;11.854;2022-09-16T01:31:15;10.00;99.90
46730;DHT22;32476;50.002;11.854;2022-09-16T01:34:15;10.00;99.90
46730;DHT22;32476;50.002;11.854;2022-09-16T01:40:13;10.00;99.90
46730;DHT22;32476;50.002;11.854;2022-09-16T01:42:52;10.00;99.90
46730;DHT22;32476;50.002;11.854;2022-09-16T01:45:36;10.00;99.90
46730;DHT22;32476;50.002;11.854;2022-09-16T01:48:33;9.90;99.90
46730;DHT22;32476;50.002;11.854;2022-09-16T01:51:33;10.00;99.90
46730;DHT22;32476;50.002;11.854;2022-09-16T01:54:23;10.00;99.90
46730;DHT22;32476;50.002;11.854;2022-09-16T01:57:18;10.00;99.90
46730;DHT22;32476;50.002;11.854;2022-09-16T02:00:09;10.00;99.90
46730;DHT22;32476;50.002;11.854;2022-09-16T02:03:06;10.00;99.90
46730;DHT22;32476;50.002;11.854;2022-09-16T02:05:57;9.90;99.90
46730;DHT22;32476;50.002;11.854;2022-09-16T02:08:43;9.90;99.90
46730;DHT22;32476;50.002;11.854;2022-09-16T02:11:15;9.90;99.90
46730;DHT22;32476;50.002;11.854;2022-09-16T02:13:50;9.90;99.90
46730;DHT22;32476;50.002;11.854;2022-09-16T02:16:49;9.90;99.90
46730;DHT22;32476;50.002;11.854;2022-09-16T02:19:23;9.90;99.90
46730;DHT22;32476;50.002;11.854;2022-09-16T02:21:52;9.90;99.90
46730;DHT22;32476;50.002;11.854;2022-09-16T02:24:23;9.90;99.90
46730;DHT22;32476;50.002;11.854;2022-09-16T02:26:59;9.90;99.90
46730;DHT22;32476;50.002;11.854;2022-09-16T02:29:36;9.90;99.90
46730;DHT22;32476;50.002;11.854;2022-09-16T02:32:07;9.90;99.90
46730;DHT22;32476;50.002;11.854;2022-09-16T02:34:38;9.90;99.90
46730;DHT22;32476;50.002;11.854;2022-09-16T02:37:25;9.90;99.90
46730;DHT22;32476;50.002;11.854;2022-09-16T02:40:00;9.90;99.90
46730;DHT22;32476;50.002;11.854;2022-09-16T02:42:30;9.90;99.90
46730;DHT22;32476;50.002;11.854;2022-09-16T02:44:59;9.90;99.90
46730;DHT22;32476;50.002;11.854;2022-09-16T02:47:32;9.90;99.90
46730;DHT22;32476;50.002;11.854;2022-09-16T02:50:39;9.90;99.90
46730;DHT22;32476;50.002;11.854;2022-09-16T02:53:31;9.90;99.90
46730;DHT22;32476;50.002;11.854;2022-09-16T02:56:14;9.90;99.90
46730;DHT22;32476;50.002;11.854;2022-09-16T02:58:47;9.90;99.90
46730;DHT22;32476;50.002;11.854;2022-09-16T03:01:15;9.80;99.90
46730;DHT22;32476;50.002;11.854;2022-09-16T03:03:42;9.80;99.90
46730;DHT22;32476;50.002;11.854;2022-09-16T03:08:36;9.90;99.90
46730;DHT22;32476;50.002;11.854;2022-09-16T03:28:50;9.70;99.90
46730;DHT22;32476;50.002;11.854;2022-09-16T03:34:53;9.70;99.90
46730;DHT22;32476;50.002;11.854;2022-09-16T03:37:27;9.70;99.90
46730;DHT22;32476;50.002;11.854;2022-09-16T03:40:02;9.70;99.90
46730;DHT22;32476;50.002;11.854;2022-09-16T03:42:32;9.70;99.90
46730;DHT22;32476;50.002;11.854;2022-09-16T03:44:58;9.70;99.90
46730;DHT22;32476;50.002;11.854;2022-09-16T03:47:24;9.60;99.90
46730;DHT22;32476;50.002;11.854;2022-09-16T03:49:51;9.70;99.90
46730;DHT22;32476;50.002;11.854;2022-09-16T03:52:17;9.60;99.90
46730;DHT22;32476;50.002;11.854;2022-09-16T03:54:44;9.60;99.90
46730;DHT22;32476;50.002;11.854;2022-09-16T03:57:12;9.60;99.90
46730;DHT22;32476;50.002;11.854;2022-09-16T03:59:38;9.60;99.90
46730;DHT22;32476;50.002;11.854;2022-09-16T04:02:03;9.60;99.90
46730;DHT22;32476;50.002;11.854;2022-09-16T04:04:31;9.50;99.90
46730;DHT22;32476;50.002;11.854;2022-09-16T04:06:57;9.60;99.90
46730;DHT22;32476;50.002;11.854;2022-09-16T04:09:23;9.50;99.90
46730;DHT22;32476;50.002;11.854;2022-09-16T04:11:50;9.50;99.90
46730;DHT22;32476;50.002;11.854;2022-09-16T04:14:16;9.50;99.90
46730;DHT22;32476;50.002;11.854;2022-09-16T04:16:42;9.50;99.90
46730;DHT22;32476;50.002;11.854;2022-09-16T04:19:11;9.50;99.90
46730;DHT22;32476;50.002;11.854;2022-09-16T04:21:39;9.50;99.90
46730;DHT22;32476;50.002;11.854;2022-09-16T04:24:05;9.50;99.90
46730;DHT22;32476;50.002;11.854;2022-09-16T04:26:33;9.50;99.90
46730;DHT22;32476;50.002;11.854;2022-09-16T04:28:59;9.50;99.90
46730;DHT22;32476;50.002;11.854;2022-09-16T04:31:25;9.50;99.90
46730;DHT22;32476;50.002;11.854;2022-09-16T04:33:52;9.50;99.90
46730;DHT22;32476;50.002;11.854;2022-09-16T04:36:19;9.50;99.90
46730;DHT22;32476;50.002;11.854;2022-09-16T04:38:46;9.40;99.90
46730;DHT22;32476;50.002;11.854;2022-09-16T04:41:17;9.40;99.90
46730;DHT22;32476;50.002;11.854;2022-09-16T04:43:45;9.40;99.90
46730;DHT22;32476;50.002;11.854;2022-09-16T04:46:12;9.50;99.90
46730;DHT22;32476;50.002;11.854;2022-09-16T04:48:39;9.50;99.90
46730;DHT22;32476;50.002;11.854;2022-09-16T04:51:08;9.50;99.90
46730;DHT22;32476;50.002;11.854;2022-09-16T04:53:36;9.50;99.90
46730;DHT22;32476;50.002;11.854;2022-09-16T04:56:10;9.50;99.90
46730;DHT22;32476;50.002;11.854;2022-09-16T04:58:48;9.50;99.90
46730;DHT22;32476;50.002;11.854;2022-09-16T05:01:25;9.50;99.90
46730;DHT22;32476;50.002;11.854;2022-09-16T05:03:54;9.50;99.90
46730;DHT22;32476;50.002;11.854;2022-09-16T05:06:35;9.50;99.90
46730;DHT22;32476;50.002;11.854;2022-09-16T05:09:03;9.50;99.90
46730;DHT22;32476;50.002;11.854;2022-09-16T05:11:34;9.50;99.90
46730;DHT22;32476;50.002;11.854;2022-09-16T05:14:03;9.40;99.90
46730;DHT22;32476;50.002;11.854;2022-09-16T05:16:36;9.50;99.90
46730;DHT22;32476;50.002;11.854;2022-09-16T05:19:02;9.50;99.90
46730;DHT22;32476;50.002;11.854;2022-09-16T05:21:34;9.50;99.90
46730;DHT22;32476;50.002;11.854;2022-09-16T05:24:07;9.50;99.90
46730;DHT22;32476;50.002;11.854;2022-09-16T05:26:37;9.60;99.90
46730;DHT22;32476;50.002;11.854;2022-09-16T05:29:09;9.60;99.90
46730;DHT22;32476;50.002;11.854;2022-09-16T05:31:39;9.50;99.90
46730;DHT22;32476;50.002;11.854;2022-09-16T05:34:16;9.50;99.90
46730;DHT22;32476;50.002;11.854;2022-09-16T05:36:44;9.60;99.90
46730;DHT22;32476;50.002;11.854;2022-09-16T05:39:15;9.50;99.90
46730;DHT22;32476;50.002;11.854;2022-09-16T05:41:43;9.60;99.90
46730;DHT22;32476;50.002;11.854;2022-09-16T05:44:09;9.60;99.90
46730;DHT22;32476;50.002;11.854;2022-09-16T05:46:37;9.60;99.90
46730;DHT22;32476;50.002;11.854;2022-09-16T05:49:05;9.60;99.90
46730;DHT22;32476;50.002;11.854;2022-09-16T05:51:32;9.60;99.90
46730;DHT22;32476;50.002;11.854;2022-09-16T05:53:59;9.50;99.90
46730;DHT22;32476;50.002;11.854;2022-09-16T05:56:27;9.50;99.90
46730;DHT22;32476;50.002;11.854;2022-09-16T05:58:56;9.60;99.90
46730;DHT22;32476;50.002;11.854;2022-09-16T06:01:27;9.60;99.90
46730;DHT22;32476;50.002;11.854;2022-09-16T06:04:00;9.60;99.90
46730;DHT22;32476;50.002;11.854;2022-09-16T06:06:40;9.60;99.90
46730;DHT22;32476;50.002;11.854;2022-09-16T06:09:17;9.50;99.90
46730;DHT22;32476;50.002;11.854;2022-09-16T06:11:48;9.60;99.90
46730;DHT22;32476;50.002;11.854;2022-09-16T06:14:16;9.50;99.90
46730;DHT22;32476;50.002;11.854;2022-09-16T06:16:43;9.60;99.90
46730;DHT22;32476;50.002;11.854;2022-09-16T06:19:13;9.50;99.90
46730;DHT22;32476;50.002;11.854;2022-09-16T06:21:42;9.60;99.90
46730;DHT22;32476;50.002;11.854;2022-09-16T06:24:10;9.60;99.90
46730;DHT22;32476;50.002;11.854;2022-09-16T06:26:41;9.50;99.90
46730;DHT22;32476;50.002;11.854;2022-09-16T06:29:08;9.60;99.90
46730;DHT22;32476;50.002;11.854;2022-09-16T06:31:36;9.60;99.90
46730;DHT22;32476;50.002;11.854;2022-09-16T06:34:04;9.50;99.90
46730;DHT22;32476;50.002;11.854;2022-09-16T06:36:34;9.60;99.90
46730;DHT22;32476;50.002;11.854;2022-09-16T06:39:02;9.60;99.90
46730;DHT22;32476;50.002;11.854;2022-09-16T06:41:31;9.70;99.90
46730;DHT22;32476;50.002;11.854;2022-09-16T06:43:58;9.70;99.90
46730;DHT22;32476;50.002;11.854;2022-09-16T06:46:26;9.80;99.90
46730;DHT22;32476;50.002;11.854;2022-09-16T06:48:55;9.80;99.90
46730;DHT22;32476;50.002;11.854;2022-09-16T06:51:24;9.80;99.90
46730;DHT22;32476;50.002;11.854;2022-09-16T06:53:52;9.90;99.90
46730;DHT22;32476;50.002;11.854;2022-09-16T06:56:22;9.90;99.90
46730;DHT22;32476;50.002;11.854;2022-09-16T06:58:50;9.80;99.90
46730;DHT22;32476;50.002;11.854;2022-09-16T07:01:22;9.80;99.90
46730;DHT22;32476;50.002;11.854;2022-09-16T07:03:55;9.90;99.90
46730;DHT22;32476;50.002;11.854;2022-09-16T07:06:23;9.90;99.90
46730;DHT22;32476;50.002;11.854;2022-09-16T07:08:49;9.90;99.90
46730;DHT22;32476;50.002;11.854;2022-09-16T07:11:19;9.90;99.90
46730;DHT22;32476;50.002;11.854;2022-09-16T07:13:46;9.90;99.90
46730;DHT22;32476;50.002;11.854;2022-09-16T07:16:16;9.80;99.90
46730;DHT22;32476;50.002;11.854;2022-09-16T07:18:44;9.90;99.90
46730;DHT22;32476;50.002;11.854;2022-09-16T07:21:14;10.00;99.90
46730;DHT22;32476;50.002;11.854;2022-09-16T07:23:42;10.10;99.90
46730;DHT22;32476;50.002;11.854;2022-09-16T07:26:13;10.30;99.90
46730;DHT22;32476;50.002;11.854;2022-09-16T07:28:41;10.60;99.90
46730;DHT22;32476;50.002;11.854;2022-09-16T07:31:11;10.50;99.90
46730;DHT22;32476;50.002;11.854;2022-09-16T07:33:42;10.30;99.90
46730;DHT22;32476;50.002;11.854;2022-09-16T07:36:12;10.30;99.90
46730;DHT22;32476;50.002;11.854;2022-09-16T07:38:41;10.30;99.90
46730;DHT22;32476;50.002;11.854;2022-09-16T07:43:42;10.50;99.90
46730;DHT22;32476;50.002;11.854;2022-09-16T07:46:11;10.40;99.90
46730;DHT22;32476;50.002;11.854;2022-09-16T07:48:37;10.70;99.90
46730;DHT22;32476;50.002;11.854;2022-09-16T07:51:08;10.70;99.90
46730;DHT22;32476;50.002;11.854;2022-09-16T07:53:35;11.00;99.90
46730;DHT22;32476;50.002;11.854;2022-09-16T07:56:22;11.00;99.90
46730;DHT22;32476;50.002;11.854;2022-09-16T07:58:52;10.90;99.90
46730;DHT22;32476;50.002;11.854;2022-09-16T08:01:19;10.90;99.90
46730;DHT22;32476;50.002;11.854;2022-09-16T08:03:46;10.80;99.90
46730;DHT22;32476;50.002;11.854;2022-09-16T08:06:16;10.50;99.90
46730;DHT22;32476;50.002;11.854;2022-09-16T08:08:44;10.60;99.90
46730;DHT22;32476;50.002;11.854;2022-09-16T08:11:11;10.60;99.90
46730;DHT22;32476;50.002;11.854;2022-09-16T08:13:41;10.70;99.90
46730;DHT22;32476;50.002;11.854;2022-09-16T08:16:15;10.90;99.90
46730;DHT22;32476;50.002;11.854;2022-09-16T08:18:46;11.00;99.90
46730;DHT22;32476;50.002;11.854;2022-09-16T08:21:19;11.00;99.90
46730;DHT22;32476;50.002;11.854;2022-09-16T08:23:48;11.20;99.90
46730;DHT22;32476;50.002;11.854;2022-09-16T08:26:17;10.90;99.90
46730;DHT22;32476;50.002;11.854;2022-09-16T08:28:45;10.80;99.90
46730;DHT22;32476;50.002;11.854;2022-09-16T08:31:13;10.70;99.90
46730;DHT22;32476;50.002;11.854;2022-09-16T08:33:40;10.70;99.90
46730;DHT22;32476;50.002;11.854;2022-09-16T08:36:12;10.80;99.90
46730;DHT22;32476;50.002;11.854;2022-09-16T08:38:42;11.00;99.90
46730;DHT22;32476;50.002;11.854;2022-09-16T08:47:55;12.40;99.90
46730;DHT22;32476;50.002;11.854;2022-09-16T08:50:34;12.10;99.90
46730;DHT22;32476;50.002;11.854;2022-09-16T08:53:10;12.10;99.90
46730;DHT22;32476;50.002;11.854;2022-09-16T08:55:48;11.80;99.90
46730;DHT22;32476;50.002;11.854;2022-09-16T08:58:24;11.50;99.90
46730;DHT22;32476;50.002;11.854;2022-09-16T09:01:03;11.20;99.90
46730;DHT22;32476;50.002;11.854;2022-09-16T09:03:42;11.20;99.90
46730;DHT22;32476;50.002;11.854;2022-09-16T09:09:22;10.70;99.90
46730;DHT22;32476;50.002;11.854;2022-09-16T09:23:42;11.60;99.90
46730;DHT22;32476;50.002;11.854;2022-09-16T09:26:30;11.30;99.90
46730;DHT22;32476;50.002;11.854;2022-09-16T09:29:17;11.70;99.90
46730;DHT22;32476;50.002;11.854;2022-09-16T09:32:44;11.90;99.90
46730;DHT22;32476;50.002;11.854;2022-09-16T09:37:35;11.70;99.90
46730;DHT22;32476;50.002;11.854;2022-09-16T09:40:16;11.60;99.90
46730;DHT22;32476;50.002;11.854;2022-09-16T09:43:13;11.50;99.90
46730;DHT22;32476;50.002;11.854;2022-09-16T09:46:06;11.20;99.90
46730;DHT22;32476;50.002;11.854;2022-09-16T09:48:39;11.30;99.90
46730;DHT22;32476;50.002;11.854;2022-09-16T09:51:21;11.40;99.90
46730;DHT22;32476;50.002;11.854;2022-09-16T09:54:04;11.50;99.90
46730;DHT22;32476;50.002;11.854;2022-09-16T09:56:58;11.40;99.90
46730;DHT22;32476;50.002;11.854;2022-09-16T09:59:49;11.80;99.90
46730;DHT22;32476;50.002;11.854;2022-09-16T10:02:22;12.50;99.90
46730;DHT22;32476;50.002;11.854;2022-09-16T10:04:49;12.30;99.90
46730;DHT22;32476;50.002;11.854;2022-09-16T10:07:19;12.80;99.90
46730;DHT22;32476;50.002;11.854;2022-09-16T10:09:52;13.10;99.90
46730;DHT22;32476;50.002;11.854;2022-09-16T10:12:46;12.70;99.90
46730;DHT22;32476;50.002;11.854;2022-09-16T10:15:26;12.40;99.90
46730;DHT22;32476;50.002;11.854;2022-09-16T10:17:54;11.90;99.90
46730;DHT22;32476;50.002;11.854;2022-09-16T10:20:30;11.90;99.90
46730;DHT22;32476;50.002;11.854;2022-09-16T10:25:31;11.70;99.90
46730;DHT22;32476;50.002;11.854;2022-09-16T10:27:59;11.90;99.90
46730;DHT22;32476;50.002;11.854;2022-09-16T10:30:29;12.10;99.90
46730;DHT22;32476;50.002;11.854;2022-09-16T10:33:01;11.90;99.90
46730;DHT22;32476;50.002;11.854;2022-09-16T10:35:31;12.00;99.90
46730;DHT22;32476;50.002;11.854;2022-09-16T10:40:36;11.90;99.90
46730;DHT22;32476;50.002;11.854;2022-09-16T10:43:06;11.90;99.90
46730;DHT22;32476;50.002;11.854;2022-09-16T10:45:45;12.00;99.90
46730;DHT22;32476;50.002;11.854;2022-09-16T10:48:22;12.10;99.90
46730;DHT22;32476;50.002;11.854;2022-09-16T10:51:02;12.30;99.90
46730;DHT22;32476;50.002;11.854;2022-09-16T10:53:34;12.40;99.90
46730;DHT22;32476;50.002;11.854;2022-09-16T10:56:04;12.30;99.90
46730;DHT22;32476;50.002;11.854;2022-09-16T10:58:33;12.20;99.90
46730;DHT22;32476;50.002;11.854;2022-09-16T11:10:26;12.30;99.90
46730;DHT22;32476;50.002;11.854;2022-09-16T11:15:44;12.60;99.90
46730;DHT22;32476;50.002;11.854;2022-09-16T11:23:48;13.50;99.90
46730;DHT22;32476;50.002;11.854;2022-09-16T11:26:48;13.40;99.90
46730;DHT22;32476;50.002;11.854;2022-09-16T11:36:02;13.10;99.90
46730;DHT22;32476;50.002;11.854;2022-09-16T11:39:00;13.50;99.90
46730;DHT22;32476;50.002;11.854;2022-09-16T11:41:50;13.90;99.90
46730;DHT22;32476;50.002;11.854;2022-09-16T11:56:40;13.10;99.90
46730;DHT22;32476;50.002;11.854;2022-09-16T11:59:39;13.00;99.90
46730;DHT22;32476;50.002;11.854;2022-09-16T12:02:28;12.70;99.90
46730;DHT22;32476;50.002;11.854;2022-09-16T12:05:22;12.80;99.90
46730;DHT22;32476;50.002;11.854;2022-09-16T12:08:09;12.70;99.90
46730;DHT22;32476;50.002;11.854;2022-09-16T12:10:58;13.30;99.90
46730;DHT22;32476;50.002;11.854;2022-09-16T12:13:39;14.30;99.90
46730;DHT22;32476;50.002;11.854;2022-09-16T12:16:13;14.60;99.90
46730;DHT22;32476;50.002;11.854;2022-09-16T12:18:48;14.50;99.90
46730;DHT22;32476;50.002;11.854;2022-09-16T12:21:29;14.20;99.90
46730;DHT22;32476;50.002;11.854;2022-09-16T12:24:09;13.80;99.90
46730;DHT22;32476;50.002;11.854;2022-09-16T12:26:47;13.40;99.90
46730;DHT22;32476;50.002;11.854;2022-09-16T12:29:41;13.20;99.90
46730;DHT22;32476;50.002;11.854;2022-09-16T12:32:26;12.70;99.90
46730;DHT22;32476;50.002;11.854;2022-09-16T12:35:09;12.20;99.90
46730;DHT22;32476;50.002;11.854;2022-09-16T12:37:49;12.20;99.90
46730;DHT22;32476;50.002;11.854;2022-09-16T12:42:54;12.30;99.90
46730;DHT22;32476;50.002;11.854;2022-09-16T12:48:59;12.50;99.90
46730;DHT22;32476;50.002;11.854;2022-09-16T12:52:06;12.30;99.90
46730;DHT22;32476;50.002;11.854;2022-09-16T12:55:12;11.70;99.90
46730;DHT22;32476;50.002;11.854;2022-09-16T13:01:43;10.70;99.90
46730;DHT22;32476;50.002;11.854;2022-09-16T13:04:18;10.60;99.90
46730;DHT22;32476;50.002;11.854;2022-09-16T13:06:49;10.80;99.90
46730;DHT22;32476;50.002;11.854;2022-09-16T13:09:29;11.70;99.90
46730;DHT22;32476;50.002;11.854;2022-09-16T13:12:02;12.30;99.90
46730;DHT22;32476;50.002;11.854;2022-09-16T13:14:43;12.90;99.90
46730;DHT22;32476;50.002;11.854;2022-09-16T13:17:12;13.00;99.90
46730;DHT22;32476;50.002;11.854;2022-09-16T13:19:48;13.20;99.90
46730;DHT22;32476;50.002;11.854;2022-09-16T13:22:33;12.70;99.90
46730;DHT22;32476;50.002;11.854;2022-09-16T13:25:28;12.30;99.90
46730;DHT22;32476;50.002;11.854;2022-09-16T13:28:03;12.10;99.90
46730;DHT22;32476;50.002;11.854;2022-09-16T13:30:48;12.60;99.90
46730;DHT22;32476;50.002;11.854;2022-09-16T13:35:47;13.20;99.90
46730;DHT22;32476;50.002;11.854;2022-09-16T13:43:35;14.30;99.90
46730;DHT22;32476;50.002;11.854;2022-09-16T13:51:31;14.70;99.90
46730;DHT22;32476;50.002;11.854;2022-09-16T13:54:00;14.60;99.90
46730;DHT22;32476;50.002;11.854;2022-09-16T13:56:50;14.30;99.90
46730;DHT22;32476;50.002;11.854;2022-09-16T13:59:48;13.70;99.90
46730;DHT22;32476;50.002;11.854;2022-09-16T14:11:33;12.80;99.90
46730;DHT22;32476;50.002;11.854;2022-09-16T14:14:08;12.50;99.90
46730;DHT22;32476;50.002;11.854;2022-09-16T14:16:41;12.00;99.90
46730;DHT22;32476;50.002;11.854;2022-09-16T14:19:24;11.70;99.90
46730;DHT22;32476;50.002;11.854;2022-09-16T14:22:15;11.40;99.90
46730;DHT22;32476;50.002;11.854;2022-09-16T14:24:43;11.60;99.90
46730;DHT22;32476;50.002;11.854;2022-09-16T14:27:19;11.70;99.90
46730;DHT22;32476;50.002;11.854;2022-09-16T14:30:01;11.70;99.90
46730;DHT22;32476;50.002;11.854;2022-09-16T14:32:34;11.90;99.90
46730;DHT22;32476;50.002;11.854;2022-09-16T14:35:07;12.00;99.90
46730;DHT22;32476;50.002;11.854;2022-09-16T14:37:37;12.50;99.90
46730;DHT22;32476;50.002;11.854;2022-09-16T14:40:11;12.80;99.90
46730;DHT22;32476;50.002;11.854;2022-09-16T14:42:53;13.30;99.90
46730;DHT22;32476;50.002;11.854;2022-09-16T14:45:22;13.30;99.90
46730;DHT22;32476;50.002;11.854;2022-09-16T14:47:52;13.40;99.90
46730;DHT22;32476;50.002;11.854;2022-09-16T14:50:26;13.70;99.90
46730;DHT22;32476;50.002;11.854;2022-09-16T14:53:00;13.90;99.90
46730;DHT22;32476;50.002;11.854;2022-09-16T14:55:36;14.00;99.90
46730;DHT22;32476;50.002;11.854;2022-09-16T14:58:08;13.90;99.90
46730;DHT22;32476;50.002;11.854;2022-09-16T15:01:30;13.40;99.90
46730;DHT22;32476;50.002;11.854;2022-09-16T15:03:44;12.90;99.90
46730;DHT22;32476;50.002;11.854;2022-09-16T15:06:19;12.40;99.90
46730;DHT22;32476;50.002;11.854;2022-09-16T15:11:22;11.90;99.90
46730;DHT22;32476;50.002;11.854;2022-09-16T15:13:57;11.20;99.90
46730;DHT22;32476;50.002;11.854;2022-09-16T15:16:23;10.40;99.90
46730;DHT22;32476;50.002;11.854;2022-09-16T15:18:56;10.10;99.90
46730;DHT22;32476;50.002;11.854;2022-09-16T15:21:29;10.10;99.90
46730;DHT22;32476;50.002;11.854;2022-09-16T15:23:59;10.20;99.90
46730;DHT22;32476;50.002;11.854;2022-09-16T15:26:43;10.30;99.90
46730;DHT22;32476;50.002;11.854;2022-09-16T15:31:46;10.20;99.90
46730;DHT22;32476;50.002;11.854;2022-09-16T15:36:50;10.80;99.90
46730;DHT22;32476;50.002;11.854;2022-09-16T15:39:36;11.20;99.90
46730;DHT22;32476;50.002;11.854;2022-09-16T15:50:08;11.60;99.90
46730;DHT22;32476;50.002;11.854;2022-09-16T15:52:59;11.80;99.90
46730;DHT22;32476;50.002;11.854;2022-09-16T15:55:52;11.80;99.90
46730;DHT22;32476;50.002;11.854;2022-09-16T15:58:23;12.10;99.90
46730;DHT22;32476;50.002;11.854;2022-09-16T16:01:10;12.20;99.90
46730;DHT22;32476;50.002;11.854;2022-09-16T16:03:50;12.00;99.90
46730;DHT22;32476;50.002;11.854;2022-09-16T16:06:47;11.30;99.90
46730;DHT22;32476;50.002;11.854;2022-09-16T16:12:00;10.40;99.90
46730;DHT22;32476;50.002;11.854;2022-09-16T16:14:31;10.30;99.90
46730;DHT22;32476;50.002;11.854;2022-09-16T16:17:07;10.20;99.90
46730;DHT22;32476;50.002;11.854;2022-09-16T16:19:35;10.10;99.90
46730;DHT22;32476;50.002;11.854;2022-09-16T16:22:05;10.10;99.90
46730;DHT22;32476;50.002;11.854;2022-09-16T16:24:32;10.10;99.90
46730;DHT22;32476;50.002;11.854;2022-09-16T16:26:59;10.10;99.90
46730;DHT22;32476;50.002;11.854;2022-09-16T16:29:27;10.10;99.90
46730;DHT22;32476;50.002;11.854;2022-09-16T16:32:10;10.20;99.90
46730;DHT22;32476;50.002;11.854;2022-09-16T16:34:41;10.30;99.90
46730;DHT22;32476;50.002;11.854;2022-09-16T16:37:11;10.30;99.90
46730;DHT22;32476;50.002;11.854;2022-09-16T16:39:40;10.30;99.90
46730;DHT22;32476;50.002;11.854;2022-09-16T16:42:06;10.40;99.90
46730;DHT22;32476;50.002;11.854;2022-09-16T16:44:33;10.50;99.90
46730;DHT22;32476;50.002;11.854;2022-09-16T16:47:01;10.50;99.90
46730;DHT22;32476;50.002;11.854;2022-09-16T16:49:27;10.50;99.90
46730;DHT22;32476;50.002;11.854;2022-09-16T16:51:53;10.40;99.90
46730;DHT22;32476;50.002;11.854;2022-09-16T16:54:21;10.40;99.90
46730;DHT22;32476;50.002;11.854;2022-09-16T16:56:47;10.10;99.90
46730;DHT22;32476;50.002;11.854;2022-09-16T16:59:14;9.90;99.90
46730;DHT22;32476;50.002;11.854;2022-09-16T17:01:42;10.00;99.90
46730;DHT22;32476;50.002;11.854;2022-09-16T17:04:10;9.70;99.90
46730;DHT22;32476;50.002;11.854;2022-09-16T17:06:36;9.80;99.90
46730;DHT22;32476;50.002;11.854;2022-09-16T17:09:06;9.60;99.90
46730;DHT22;32476;50.002;11.854;2022-09-16T17:11:33;9.50;99.90
46730;DHT22;32476;50.002;11.854;2022-09-16T17:14:02;9.50;99.90
46730;DHT22;32476;50.002;11.854;2022-09-16T17:16:32;9.40;99.90
46730;DHT22;32476;50.002;11.854;2022-09-16T17:19:00;9.30;99.90
46730;DHT22;32476;50.002;11.854;2022-09-16T17:21:31;9.30;99.90
46730;DHT22;32476;50.002;11.854;2022-09-16T17:23:59;9.20;99.90
46730;DHT22;32476;50.002;11.854;2022-09-16T17:26:26;9.20;99.90
46730;DHT22;32476;50.002;11.854;2022-09-16T17:28:53;9.20;99.90
46730;DHT22;32476;50.002;11.854;2022-09-16T17:31:26;9.10;99.90
46730;DHT22;32476;50.002;11.854;2022-09-16T17:33:55;9.00;99.90
46730;DHT22;32476;50.002;11.854;2022-09-16T17:36:24;9.00;99.90
46730;DHT22;32476;50.002;11.854;2022-09-16T17:38:58;9.00;99.90
46730;DHT22;32476;50.002;11.854;2022-09-16T17:41:27;9.00;99.90
46730;DHT22;32476;50.002;11.854;2022-09-16T17:43:54;8.90;99.90
46730;DHT22;32476;50.002;11.854;2022-09-16T17:46:21;8.90;99.90
46730;DHT22;32476;50.002;11.854;2022-09-16T17:48:49;8.80;99.90
46730;DHT22;32476;50.002;11.854;2022-09-16T17:51:17;8.80;99.90
46730;DHT22;32476;50.002;11.854;2022-09-16T17:53:43;8.70;99.90
46730;DHT22;32476;50.002;11.854;2022-09-16T17:56:13;8.70;99.90
46730;DHT22;32476;50.002;11.854;2022-09-16T17:58:42;8.70;99.90
46730;DHT22;32476;50.002;11.854;2022-09-16T18:01:13;8.80;99.90
46730;DHT22;32476;50.002;11.854;2022-09-16T18:03:44;8.80;99.90
46730;DHT22;32476;50.002;11.854;2022-09-16T18:06:20;8.70;99.90
46730;DHT22;32476;50.002;11.854;2022-09-16T18:08:48;8.70;99.90
46730;DHT22;32476;50.002;11.854;2022-09-16T18:11:17;8.60;99.90
46730;DHT22;32476;50.002;11.854;2022-09-16T18:13:45;8.60;99.90
46730;DHT22;32476;50.002;11.854;2022-09-16T18:16:17;8.70;99.90
46730;DHT22;32476;50.002;11.854;2022-09-16T18:18:50;8.80;99.90
46730;DHT22;32476;50.002;11.854;2022-09-16T18:21:18;8.90;99.90
46730;DHT22;32476;50.002;11.854;2022-09-16T18:23:46;8.90;99.90
46730;DHT22;32476;50.002;11.854;2022-09-16T18:26:16;8.90;99.90
46730;DHT22;32476;50.002;11.854;2022-09-16T18:28:45;8.80;99.90
46730;DHT22;32476;50.002;11.854;2022-09-16T18:31:15;8.80;99.90
46730;DHT22;32476;50.002;11.854;2022-09-16T18:33:43;8.80;99.90